Time;durP1;ratioP1;P1;durP2;ratioP2;P2;SDS_P1;SDS_P2;PMS_P1;PMS_P2;Temp;Humidity;BMP_temperature;BMP_pressure;BME280_temperature;BME280_humidity;BME280_pressure;Samples;Min_cycle;Max_cycle;Signal;HPM_P1;HPM_P2
2023/10/12 00:02:38;;;;;;;16.00;5.50;;;;;;;14.67;96.27;100357.66;4879643;29;20496;-69
2023/10/12 00:05:45;;;;;;;17.83;5.35;;;;;;;14.60;96.31;100359.06;4879873;29;20091;-69
2023/10/12 00:08:48;;;;;;;10.00;4.70;;;;;;;14.61;96.51;100364.25;4879967;29;20117;-70
2023/10/12 00:11:57;;;;;;;13.85;5.78;;;;;;;14.70;96.45;100349.56;4879761;29;20079;-70
2023/10/12 00:15:05;;;;;;;16.48;4.88;;;;;;;14.67;95.98;100346.31;4879757;29;20072;-70
2023/10/12 00:18:08;;;;;;;12.30;5.03;;;;;;;14.72;95.72;100345.03;4880022;29;20475;-70
2023/10/12 00:21:15;;;;;;;14.48;4.70;;;;;;;14.65;95.74;100336.75;4879069;29;20132;-70
2023/10/12 00:24:18;;;;;;;13.48;5.13;;;;;;;14.65;95.78;100339.38;4879656;29;20176;-70
2023/10/12 00:27:21;;;;;;;15.30;5.05;;;;;;;14.73;95.80;100346.69;4879509;29;20528;-70
2023/10/12 00:30:25;;;;;;;15.00;4.90;;;;;;;14.74;95.62;100347.53;4879715;29;20517;-70
2023/10/12 00:33:28;;;;;;;23.15;4.80;;;;;;;14.68;95.03;100337.47;4857386;29;20117;-70
2023/10/12 00:36:36;;;;;;;12.02;4.60;;;;;;;14.55;96.75;100338.38;4879443;29;20056;-70
2023/10/12 00:39:47;;;;;;;18.63;5.43;;;;;;;14.46;96.96;100340.78;4878514;29;20087;-70
2023/10/12 00:42:53;;;;;;;17.23;5.47;;;;;;;14.30;99.40;100339.25;4879526;29;20052;-70
2023/10/12 00:45:56;;;;;;;13.02;5.38;;;;;;;14.36;99.53;100346.69;4879327;29;20520;-70
2023/10/12 00:49:20;;;;;;;12.40;4.35;;;;;;;14.48;98.88;100347.59;4878024;29;20055;-70
2023/10/12 00:52:33;;;;;;;12.25;4.57;;;;;;;14.53;98.50;100342.06;4878174;29;20048;-70
2023/10/12 00:55:36;;;;;;;14.65;4.40;;;;;;;14.44;98.75;100351.41;4879059;29;20120;-70
2023/10/12 00:58:41;;;;;;;14.20;5.15;;;;;;;14.52;97.89;100343.84;4879066;29;20124;-70
2023/10/12 01:01:45;;;;;;;16.42;4.97;;;;;;;14.59;97.30;100336.34;4878803;29;20524;-70
2023/10/12 01:04:48;;;;;;;11.18;4.68;;;;;;;14.65;96.71;100349.91;4878862;29;20100;-70
2023/10/12 01:07:53;;;;;;;11.95;4.10;;;;;;;14.81;95.56;100351.44;4867182;29;20137;-70
2023/10/12 01:10:59;;;;;;;17.02;4.93;;;;;;;14.71;95.99;100342.50;4878806;29;20421;-70
2023/10/12 01:14:09;;;;;;;18.55;5.30;;;;;;;14.73;96.34;100337.97;4878709;29;20521;-69
2023/10/12 01:17:35;;;;;;;12.02;4.30;;;;;;;14.74;95.52;100322.09;4867395;29;20117;-70
2023/10/12 01:20:39;;;;;;;11.60;4.22;;;;;;;14.84;94.18;100322.25;4867279;29;20044;-69
2023/10/12 01:23:50;;;;;;;14.40;4.80;;;;;;;15.27;89.61;100321.69;4878724;29;20048;-69
2023/10/12 01:26:53;;;;;;;15.70;5.53;;;;;;;15.25;91.17;100334.13;4877467;29;20056;-69
2023/10/12 01:30:08;;;;;;;11.48;4.60;;;;;;;15.01;93.25;100331.53;4878718;29;20051;-69
2023/10/12 01:33:14;;;;;;;9.98;4.50;;;;;;;15.07;93.31;100339.81;4878494;29;20113;-69
2023/10/12 01:36:17;;;;;;;12.95;4.15;;;;;;;15.00;94.35;100328.06;4878560;29;20051;-69
2023/10/12 01:39:20;;;;;;;9.35;4.80;;;;;;;14.96;94.74;100331.03;4878561;29;20516;-69
2023/10/12 01:46:05;;;;;;;13.52;5.05;;;;;;;15.06;94.64;100327.63;4878422;29;20055;-69
2023/10/12 01:49:11;;;;;;;14.38;4.95;;;;;;;15.26;92.19;100325.28;4878512;29;20083;-69
2023/10/12 01:52:14;;;;;;;8.02;4.30;;;;;;;15.30;92.77;100327.56;4882155;29;20137;-69
2023/10/12 01:55:29;;;;;;;13.60;4.35;;;;;;;15.30;93.31;100318.81;4891484;29;20044;-69
2023/10/12 01:58:35;;;;;;;10.07;5.00;;;;;;;15.11;94.98;100314.94;4882301;29;20063;-69
2023/10/12 02:01:42;;;;;;;11.60;4.80;;;;;;;15.09;95.16;100332.66;4881334;29;20063;-69
2023/10/12 02:04:47;;;;;;;18.30;4.47;;;;;;;15.09;95.32;100337.94;4881510;29;20139;-69
2023/10/12 02:07:53;;;;;;;12.13;4.38;;;;;;;15.21;93.50;100340.59;4869676;29;20096;-69
2023/10/12 02:11:04;;;;;;;11.07;4.00;;;;;;;15.38;92.72;100334.03;4869667;29;20040;-69
2023/10/12 02:14:11;;;;;;;13.50;4.72;;;;;;;16.10;82.51;100333.81;4869321;29;20565;-69
2023/10/12 02:17:14;;;;;;;10.32;5.13;;;;;;;16.45;80.81;100336.31;4870411;29;20056;-69
2023/10/12 02:20:18;;;;;;;16.08;4.85;;;;;;;16.95;76.91;100341.97;4891837;29;20052;-69
2023/10/12 02:23:23;;;;;;;10.02;4.30;;;;;;;17.42;72.88;100340.69;4880922;29;20132;-69
2023/10/12 02:29:56;;;;;;;12.48;4.47;;;;;;;17.61;71.07;100323.25;4881600;29;20043;-69
2023/10/12 02:33:07;;;;;;;14.90;4.82;;;;;;;17.60;70.78;100326.88;4881736;29;20073;-69
2023/10/12 02:36:10;;;;;;;14.95;4.55;;;;;;;17.66;70.54;100311.31;4881719;29;20084;-69
2023/10/12 02:39:20;;;;;;;12.27;3.92;;;;;;;17.62;70.30;100311.72;4881673;29;20109;-69
2023/10/12 02:42:38;;;;;;;10.88;4.68;;;;;;;17.64;70.27;100333.56;4880765;29;20064;-69
2023/10/12 02:45:42;;;;;;;11.43;4.40;;;;;;;17.78;69.32;100328.00;4881474;29;20097;-69
2023/10/12 02:48:47;;;;;;;19.08;5.05;;;;;;;17.81;68.83;100327.72;4869996;29;20151;-69
2023/10/12 02:51:51;;;;;;;16.15;5.53;;;;;;;17.93;68.44;100354.06;4881438;29;20107;-69
2023/10/12 02:54:55;;;;;;;14.63;4.82;;;;;;;18.01;67.67;100356.91;4881343;29;20048;-69
2023/10/12 02:57:59;;;;;;;12.27;4.60;;;;;;;18.18;66.70;100334.28;4881282;29;20516;-69
2023/10/12 03:01:18;;;;;;;17.10;4.85;;;;;;;18.04;67.08;100346.06;4880190;29;20064;-69
2023/10/12 03:04:24;;;;;;;12.57;4.50;;;;;;;17.94;67.78;100372.47;4880314;29;20059;-69
2023/10/12 03:07:28;;;;;;;13.13;4.05;;;;;;;17.99;67.61;100380.84;4871696;29;20040;-70
2023/10/12 03:10:31;;;;;;;15.18;4.03;;;;;;;17.88;68.05;100381.78;4862368;29;20102;-69
2023/10/12 03:13:37;;;;;;;9.35;4.05;;;;;;;17.84;68.27;100383.00;4862218;29;20060;-70
2023/10/12 03:16:42;;;;;;;19.52;4.80;;;;;;;17.82;68.53;100406.09;4861635;29;20057;-69
2023/10/12 03:19:55;;;;;;;11.30;3.92;;;;;;;17.75;68.82;100415.50;4862292;29;20044;-69
2023/10/12 03:23:12;;;;;;;12.75;4.13;;;;;;;17.70;69.07;100416.84;4862536;29;20056;-69
2023/10/12 03:29:22;;;;;;;13.70;4.32;;;;;;;17.59;70.77;100372.78;4861427;29;20149;-71
2023/10/12 03:32:25;;;;;;;10.48;4.53;;;;;;;17.60;69.33;100416.75;4862199;29;20052;-71
2023/10/12 03:35:34;;;;;;;12.82;3.80;;;;;;;17.53;71.31;100405.03;4862166;29;20084;-71
2023/10/12 03:38:37;;;;;;;9.90;4.10;;;;;;;17.51;72.29;100417.53;4862155;29;20423;-70
2023/10/12 03:42:09;;;;;;;9.73;4.65;;;;;;;17.35;74.50;100447.84;4862190;29;20510;-71
2023/10/12 03:45:24;;;;;;;13.57;5.20;;;;;;;17.28;76.45;100454.63;4861633;29;20064;-71
2023/10/12 03:51:54;;;;;;;15.80;4.72;;;;;;;16.98;78.64;100436.81;4861701;29;20052;-71
2023/10/12 03:58:06;;;;;;;11.48;4.70;;;;;;;16.82;80.27;100474.19;4861847;29;20097;-71
2023/10/12 04:01:22;;;;;;;12.20;4.25;;;;;;;16.85;80.43;100473.09;4861694;29;20117;-71
2023/10/12 04:04:29;;;;;;;14.52;4.18;;;;;;;16.77;81.60;100455.22;4860869;29;20118;-72
2023/10/12 04:20:30;;;;;;;17.38;4.50;;;;;;;16.48;83.69;100444.28;4861338;29;20048;-72
2023/10/12 04:26:38;;;;;;;14.07;4.75;;;;;;;16.42;84.32;100435.03;4861250;29;20410;-69
2023/10/12 04:29:41;;;;;;;13.18;4.40;;;;;;;16.37;85.58;100447.75;4861083;29;20639;-70
2023/10/12 04:36:10;;;;;;;12.70;4.50;;;;;;;16.31;88.22;100405.19;4861350;29;20052;-64
2023/10/12 04:39:24;;;;;;;15.30;5.63;;;;;;;16.11;89.65;100393.53;4860838;29;20052;-71
2023/10/12 04:42:34;;;;;;;10.27;4.38;;;;;;;15.93;90.45;100379.97;4860916;29;20059;-71
2023/10/12 04:52:36;;;;;;;12.55;5.40;;;;;;;15.67;92.49;100395.16;4860416;29;20458;-69
2023/10/12 04:55:47;;;;;;;23.27;10.77;;;;;;;15.85;91.21;100388.44;4860888;29;20072;-70
2023/10/12 04:58:56;;;;;;;13.93;6.65;;;;;;;15.90;90.52;100378.41;4859597;29;20410;-69
2023/10/12 05:05:51;;;;;;;16.10;5.10;;;;;;;15.63;92.17;100420.84;4860634;29;20430;-69
2023/10/12 05:08:43;;;;;;;11.68;5.75;;;;;;;15.62;92.50;100442.88;4860976;29;20044;-70
2023/10/12 05:11:46;;;;;;;13.02;4.85;;;;;;;15.77;91.60;100454.13;4859702;29;20060;-70
2023/10/12 05:14:55;;;;;;;32.25;13.35;;;;;;;15.80;91.14;100443.34;4860346;29;20056;-70
2023/10/12 05:17:58;;;;;;;22.02;10.38;;;;;;;15.89;91.40;100458.47;4859906;29;20056;-70
2023/10/12 05:21:04;;;;;;;18.20;8.60;;;;;;;15.95;91.13;100472.97;4860406;29;20114;-70
2023/10/12 05:24:11;;;;;;;70.75;26.85;;;;;;;15.91;94.20;100472.38;4860095;29;20050;-70
2023/10/12 05:27:24;;;;;;;25.15;10.23;;;;;;;15.89;92.34;100482.22;4859805;29;20048;-71
2023/10/12 05:30:27;;;;;;;19.40;8.18;;;;;;;15.92;92.08;100494.28;4860175;29;20048;-74
2023/10/12 05:36:42;;;;;;;19.75;6.88;;;;;;;15.75;92.90;100519.28;4859164;29;20466;-72
2023/10/12 05:39:50;;;;;;;92.35;39.80;;;;;;;15.70;95.78;100510.91;4860009;29;20172;-71
2023/10/12 05:42:54;;;;;;;27.40;9.40;;;;;;;15.73;94.09;100510.66;4859337;29;20556;-71
2023/10/12 05:46:01;;;;;;;18.45;7.25;;;;;;;15.81;93.21;100516.19;4858225;29;20467;-71
2023/10/12 05:49:13;;;;;;;12.35;5.57;;;;;;;15.71;93.35;100523.13;4858302;29;20095;-71
2023/10/12 05:52:17;;;;;;;22.67;7.53;;;;;;;15.67;93.43;100521.66;4860178;29;20430;-72
2023/10/12 05:55:23;;;;;;;13.75;5.10;;;;;;;15.73;93.18;100523.81;4858161;29;20175;-72
2023/10/12 05:58:27;;;;;;;12.05;5.07;;;;;;;15.67;93.57;100548.88;4858053;29;20587;-72
2023/10/12 06:01:34;;;;;;;13.30;4.57;;;;;;;15.71;93.13;100534.50;4857640;29;20212;-71
2023/10/12 06:04:38;;;;;;;10.70;4.35;;;;;;;15.83;92.32;100537.19;4857077;29;20535;-71
2023/10/12 06:07:41;;;;;;;13.55;4.88;;;;;;;15.85;92.18;100530.00;4856776;29;20056;-70
2023/10/12 06:10:45;;;;;;;16.67;4.47;;;;;;;15.80;92.44;100536.47;4856631;29;20048;-70
2023/10/12 06:13:51;;;;;;;12.75;4.90;;;;;;;15.73;93.00;100534.38;4857384;29;20118;-70
2023/10/12 06:16:55;;;;;;;12.43;5.22;;;;;;;15.63;93.81;100533.34;4856584;29;20060;-70
2023/10/12 06:20:13;;;;;;;9.70;4.75;;;;;;;15.68;93.42;100533.88;4858630;29;20051;-71
2023/10/12 06:23:16;;;;;;;14.88;5.03;;;;;;;15.68;93.39;100565.50;4877224;29;20145;-72
2023/10/12 06:26:28;;;;;;;12.63;5.70;;;;;;;15.47;94.36;100567.88;4876883;29;20125;-73
2023/10/12 06:29:32;;;;;;;15.18;5.07;;;;;;;15.44;95.30;100579.47;4877360;29;20076;-72
2023/10/12 06:32:38;;;;;;;11.70;4.88;;;;;;;15.53;94.50;100589.34;4876881;29;20105;-72
2023/10/12 06:35:59;;;;;;;15.55;5.85;;;;;;;15.67;93.88;100595.47;4877371;29;20055;-71
2023/10/12 06:42:26;;;;;;;14.02;4.63;;;;;;;15.71;94.15;100554.75;4880459;29;20055;-71
2023/10/12 06:45:30;;;;;;;11.88;5.32;;;;;;;15.67;94.50;100571.75;4879442;29;20143;-72
2023/10/12 06:51:37;;;;;;;16.10;4.95;;;;;;;15.47;96.75;100565.22;4880505;29;20056;-77
2023/10/12 06:54:49;;;;;;;13.65;4.88;;;;;;;15.56;96.54;100541.69;4880361;29;20052;-71
2023/10/12 06:57:53;;;;;;;7.63;4.50;;;;;;;15.58;97.39;100539.78;4880820;29;20083;-62
2023/10/12 07:01:18;;;;;;;21.58;8.00;;;;;;;15.65;98.00;100539.34;4880549;29;20272;-68
2023/10/12 07:04:28;;;;;;;22.15;9.18;;;;;;;15.76;97.82;100542.91;4880617;29;20068;-61
2023/10/12 07:07:41;;;;;;;15.18;6.32;;;;;;;15.68;96.77;100565.50;4880498;29;20055;-61
2023/10/12 07:10:51;;;;;;;12.70;6.45;;;;;;;15.40;100.00;100592.97;4880356;29;20059;-61
2023/10/12 07:13:54;;;;;;;11.50;6.05;;;;;;;15.47;100.00;100581.88;4880215;29;20059;-61
2023/10/12 07:17:01;;;;;;;16.75;7.10;;;;;;;15.51;100.00;100583.38;4880271;29;20137;-61
2023/10/12 07:20:25;;;;;;;16.58;5.85;;;;;;;15.59;100.00;100586.28;4880194;29;20105;-61
2023/10/12 07:23:35;;;;;;;14.35;6.25;;;;;;;15.63;100.00;100578.16;4880201;29;20418;-61
2023/10/12 07:26:41;;;;;;;14.38;6.25;;;;;;;15.50;100.00;100589.56;4880328;29;20056;-62
2023/10/12 07:29:44;;;;;;;11.65;5.35;;;;;;;15.61;100.00;100583.53;4880290;29;20039;-61
2023/10/12 07:32:59;;;;;;;11.82;5.65;;;;;;;15.69;100.00;100588.28;4880135;29;20591;-63
2023/10/12 07:36:11;;;;;;;12.45;5.28;;;;;;;15.62;100.00;100594.91;4879991;29;20121;-62
2023/10/12 07:39:19;;;;;;;12.63;6.53;;;;;;;15.63;100.00;100601.88;4879780;29;20196;-62
2023/10/12 07:42:27;;;;;;;10.52;5.22;;;;;;;15.63;100.00;100609.78;4880022;29;20048;-62
2023/10/12 07:45:37;;;;;;;14.45;5.70;;;;;;;15.67;100.00;100608.66;4879888;29;20082;-62
2023/10/12 07:48:44;;;;;;;12.38;5.70;;;;;;;15.58;100.00;100608.31;4879908;29;20124;-61
2023/10/12 07:52:09;;;;;;;9.73;5.00;;;;;;;15.54;100.00;100612.13;4879808;29;20185;-61
2023/10/12 07:55:15;;;;;;;12.82;5.45;;;;;;;15.75;100.00;100608.91;4879808;29;20158;-72
2023/10/12 07:58:21;;;;;;;21.00;7.00;;;;;;;15.80;100.00;100617.34;4878061;29;20117;-72
2023/10/12 08:08:36;;;;;;;12.48;5.07;;;;;;;15.84;100.00;100644.34;4876219;29;20048;-72
2023/10/12 08:11:39;;;;;;;9.50;4.75;;;;;;;15.80;100.00;100655.09;4876189;29;20425;-72
2023/10/12 08:14:43;;;;;;;12.07;5.25;;;;;;;15.79;100.00;100658.69;4877255;29;20072;-72
2023/10/12 08:17:46;;;;;;;24.45;12.48;;;;;;;15.78;100.00;100664.06;4877173;29;20078;-72
2023/10/12 08:21:00;;;;;;;30.85;21.60;;;;;;;15.80;100.00;100670.91;4878819;29;20153;-72
2023/10/12 08:24:10;;;;;;;27.42;17.48;;;;;;;15.75;100.00;100672.19;4878652;29;20060;-72
2023/10/12 08:27:18;;;;;;;20.00;14.02;;;;;;;15.71;100.00;100684.75;4878875;29;20056;-72
2023/10/12 08:30:23;;;;;;;27.00;16.38;;;;;;;15.71;100.00;100676.00;4878901;29;20454;-72
2023/10/12 08:40:30;;;;;;;10.95;6.32;;;;;;;15.87;100.00;100671.31;4878839;29;20528;-73
2023/10/12 08:43:42;;;;;;;14.60;6.18;;;;;;;15.92;100.00;100663.06;4870330;29;20525;-72
2023/10/12 08:46:56;;;;;;;11.57;5.43;;;;;;;15.96;100.00;100654.84;4870634;29;20139;-72
2023/10/12 08:53:07;;;;;;;10.10;5.40;;;;;;;15.91;100.00;100650.84;4867934;29;20056;-72
2023/10/12 08:56:11;;;;;;;8.80;4.90;;;;;;;15.97;100.00;100653.88;4859550;29;20105;-72
2023/10/12 08:59:17;;;;;;;11.48;5.97;;;;;;;15.99;100.00;100654.59;4865170;29;20132;-73
2023/10/12 09:02:23;;;;;;;12.93;5.95;;;;;;;16.01;100.00;100660.59;4878089;29;20479;-73
2023/10/12 09:05:28;;;;;;;29.05;7.80;;;;;;;16.09;100.00;100656.59;4878090;29;20513;-73
2023/10/12 09:08:39;;;;;;;11.07;5.95;;;;;;;16.10;100.00;100663.53;4877968;29;20051;-73
2023/10/12 09:11:44;;;;;;;16.48;7.22;;;;;;;16.04;100.00;100663.00;4878011;29;20055;-73
2023/10/12 09:14:50;;;;;;;16.42;11.68;;;;;;;15.95;100.00;100658.44;4878007;29;20059;-77
2023/10/12 09:17:53;;;;;;;16.35;10.45;;;;;;;16.03;100.00;100661.34;4873609;29;20096;-74
2023/10/12 09:24:21;;;;;;;12.20;5.82;;;;;;;16.06;100.00;100654.16;4865466;29;20128;-74
2023/10/12 09:27:36;;;;;;;12.38;6.53;;;;;;;16.14;100.00;100651.78;4876516;29;20051;-74
2023/10/12 09:30:44;;;;;;;12.52;6.90;;;;;;;16.12;100.00;100635.25;4868929;29;20140;-74
2023/10/12 09:33:54;;;;;;;10.45;6.30;;;;;;;16.06;100.00;100633.06;4861108;29;20506;-73
2023/10/12 09:36:59;;;;;;;15.13;7.53;;;;;;;16.18;100.00;100634.81;4868639;29;20052;-73
2023/10/12 09:40:09;;;;;;;11.70;6.90;;;;;;;16.16;100.00;100629.63;4870768;29;20048;-73
2023/10/12 09:43:15;;;;;;;13.07;7.43;;;;;;;16.19;100.00;100623.28;4866161;29;20447;-74
2023/10/12 09:46:26;;;;;;;13.05;6.32;;;;;;;16.26;100.00;100629.78;4870681;29;20166;-73
2023/10/12 09:49:30;;;;;;;16.20;6.75;;;;;;;16.19;100.00;100620.66;4864834;29;20101;-73
2023/10/12 09:52:46;;;;;;;14.65;6.47;;;;;;;16.18;100.00;100605.78;4866085;29;20120;-73
2023/10/12 09:56:24;;;;;;;12.02;6.45;;;;;;;16.20;100.00;100609.97;4877495;29;20110;-73
2023/10/12 09:59:29;;;;;;;12.00;6.30;;;;;;;16.17;100.00;100606.72;4875921;29;20421;-73
2023/10/12 10:02:33;;;;;;;16.95;6.18;;;;;;;16.02;100.00;100606.06;4863892;29;20064;-73
2023/10/12 10:06:03;;;;;;;11.57;6.25;;;;;;;15.73;100.00;100616.09;4875869;29;20432;-74
2023/10/12 10:09:23;;;;;;;19.15;6.10;;;;;;;15.88;100.00;100620.25;4875734;29;20208;-73
2023/10/12 10:12:35;;;;;;;12.77;6.20;;;;;;;16.04;100.00;100610.25;4877578;29;20071;-73
2023/10/12 10:15:59;;;;;;;12.27;6.00;;;;;;;16.08;100.00;100610.91;4881367;29;20052;-74
2023/10/12 10:19:14;;;;;;;13.15;6.15;;;;;;;15.95;100.00;100610.97;4881192;29;20099;-72
2023/10/12 10:22:18;;;;;;;13.18;6.70;;;;;;;16.05;100.00;100616.41;4881257;29;20059;-72
2023/10/12 10:25:33;;;;;;;10.57;6.65;;;;;;;16.08;100.00;100623.22;4879039;29;20146;-73
2023/10/12 10:28:37;;;;;;;18.73;6.82;;;;;;;15.97;100.00;100624.03;4880905;29;20127;-74
2023/10/12 10:31:44;;;;;;;19.50;7.05;;;;;;;16.17;100.00;100610.19;4881130;29;20112;-74
2023/10/12 10:34:55;;;;;;;9.98;6.00;;;;;;;16.08;100.00;100625.84;4880781;29;20056;-74
2023/10/12 10:38:08;;;;;;;14.68;6.45;;;;;;;16.11;100.00;100620.34;4881044;29;20414;-74
2023/10/12 10:41:18;;;;;;;13.95;7.63;;;;;;;16.11;100.00;100621.19;4869180;29;20121;-73
2023/10/12 10:44:26;;;;;;;13.60;7.20;;;;;;;16.17;100.00;100630.47;4881049;29;20063;-74
2023/10/12 10:47:32;;;;;;;12.43;7.53;;;;;;;16.23;100.00;100633.47;4880716;29;20504;-74
2023/10/12 10:50:40;;;;;;;15.63;7.15;;;;;;;16.20;100.00;100630.22;4880437;29;20048;-72
2023/10/12 10:53:51;;;;;;;13.30;6.88;;;;;;;16.25;100.00;100636.88;4878877;29;20052;-73
2023/10/12 10:56:58;;;;;;;11.70;6.20;;;;;;;16.46;100.00;100636.19;4866259;29;20052;-69
2023/10/12 11:00:10;;;;;;;18.55;7.88;;;;;;;16.52;100.00;100636.56;4875052;29;20055;-64
2023/10/12 11:03:16;;;;;;;10.40;5.70;;;;;;;16.67;100.00;100624.03;4880405;29;20056;-63
2023/10/12 11:06:22;;;;;;;12.82;8.23;;;;;;;16.80;100.00;100618.69;4880510;29;20109;-62
2023/10/12 11:09:49;;;;;;;10.82;6.57;;;;;;;16.80;100.00;100625.75;4880499;29;20047;-65
2023/10/12 11:12:54;;;;;;;11.60;6.15;;;;;;;16.80;100.00;100618.69;4880424;29;20055;-62
2023/10/12 11:16:20;;;;;;;15.82;6.75;;;;;;;16.81;100.00;100615.06;4880572;29;20522;-65
2023/10/12 11:19:23;;;;;;;10.45;5.47;;;;;;;16.94;100.00;100599.97;4880075;29;20104;-67
2023/10/12 11:22:26;;;;;;;12.70;6.10;;;;;;;17.01;100.00;100588.94;4863951;29;20060;-67
2023/10/12 11:25:39;;;;;;;10.35;5.80;;;;;;;16.96;100.00;100584.84;4869594;29;20093;-65
2023/10/12 11:28:45;;;;;;;10.48;5.18;;;;;;;17.11;100.00;100585.44;4880143;29;20067;-63
2023/10/12 11:32:11;;;;;;;10.23;6.03;;;;;;;17.19;100.00;100590.13;4866233;29;20052;-63
2023/10/12 11:35:14;;;;;;;16.88;7.22;;;;;;;17.15;100.00;100586.88;4861346;29;20100;-75
2023/10/12 11:38:20;;;;;;;12.70;7.07;;;;;;;17.29;100.00;100577.84;4861383;29;20052;-75
2023/10/12 11:41:23;;;;;;;12.45;7.63;;;;;;;17.47;100.00;100566.78;4872316;29;20048;-76
2023/10/12 11:45:18;;;;;;;10.05;7.43;;;;;;;17.49;100.00;100556.94;4862099;29;20057;-77
2023/10/12 11:48:22;;;;;;;15.65;9.48;;;;;;;17.77;100.00;100555.53;4860482;29;20037;-73
2023/10/12 11:51:26;;;;;;;15.25;8.07;;;;;;;18.00;99.67;100551.84;4860739;29;20102;-73
2023/10/12 11:54:33;;;;;;;14.60;7.47;;;;;;;18.20;97.50;100546.72;4860504;29;20136;-68
2023/10/12 11:57:40;;;;;;;10.32;6.25;;;;;;;18.27;96.09;100542.56;4860287;29;20196;-74
2023/10/12 12:00:50;;;;;;;14.68;6.28;;;;;;;18.26;95.36;100540.91;4849079;29;20059;-72
2023/10/12 12:03:54;;;;;;;10.38;6.95;;;;;;;18.33;94.85;100527.00;4860661;29;20057;-72
2023/10/12 12:06:59;;;;;;;12.40;5.65;;;;;;;18.50;91.18;100522.06;4875905;29;20097;-73
2023/10/12 12:10:07;;;;;;;18.38;7.97;;;;;;;18.45;91.05;100524.28;4878009;29;20052;-74
2023/10/12 12:13:12;;;;;;;13.95;7.03;;;;;;;18.55;90.95;100519.88;4861302;29;20462;-73
2023/10/12 12:16:20;;;;;;;16.48;7.07;;;;;;;18.66;89.62;100516.31;4873494;29;20153;-71
2023/10/12 12:19:24;;;;;;;10.75;6.10;;;;;;;18.89;87.22;100511.69;4870570;29;20205;-73
2023/10/12 12:22:38;;;;;;;16.90;8.75;;;;;;;18.72;86.88;100506.03;4870509;29;20124;-72
2023/10/12 12:25:44;;;;;;;13.95;6.75;;;;;;;18.71;86.74;100508.81;4859021;29;20525;-72
2023/10/12 12:29:03;;;;;;;10.10;5.65;;;;;;;18.81;84.44;100507.91;4870239;29;20085;-73
2023/10/12 12:32:12;;;;;;;13.75;6.13;;;;;;;18.86;83.52;100509.31;4865164;29;20099;-74
2023/10/12 12:35:18;;;;;;;11.82;5.55;;;;;;;18.47;84.10;100501.16;4875095;29;20411;-73
2023/10/12 12:42:29;;;;;;;15.23;6.03;;;;;;;18.18;85.35;100501.81;4857135;29;20091;-73
2023/10/12 12:45:35;;;;;;;16.73;5.95;;;;;;;17.97;87.05;100516.88;4873247;29;20051;-73
2023/10/12 12:48:49;;;;;;;12.00;5.22;;;;;;;17.82;88.42;100497.81;4873397;29;20051;-73
2023/10/12 12:51:57;;;;;;;9.82;5.13;;;;;;;17.84;88.73;100491.44;4878957;29;20082;-72
2023/10/12 12:55:01;;;;;;;23.23;6.68;;;;;;;17.93;88.74;100494.28;4877744;29;20097;-73
2023/10/12 12:58:09;;;;;;;12.05;5.38;;;;;;;17.89;88.63;100496.34;4878673;29;20077;-72
2023/10/12 13:01:19;;;;;;;11.32;4.88;;;;;;;17.82;87.28;100503.94;4877929;29;20114;-73
2023/10/12 13:04:26;;;;;;;13.80;5.38;;;;;;;17.79;89.08;100498.91;4878201;29;20161;-73
2023/10/12 13:07:30;;;;;;;12.25;4.88;;;;;;;17.86;89.72;100475.44;4879046;29;20470;-73
2023/10/12 13:10:35;;;;;;;11.93;6.25;;;;;;;17.92;90.17;100492.59;4863612;29;20044;-78
2023/10/12 13:13:39;;;;;;;13.70;5.85;;;;;;;17.95;90.88;100489.72;4876427;29;20139;-74
2023/10/12 13:16:42;;;;;;;16.65;7.15;;;;;;;17.88;90.54;100490.22;4859990;29;20063;-73
2023/10/12 13:19:49;;;;;;;15.18;5.20;;;;;;;17.67;93.10;100494.59;4859604;29;20047;-74
2023/10/12 13:22:58;;;;;;;15.57;5.32;;;;;;;17.67;94.64;100510.47;4859768;29;20105;-73
2023/10/12 13:26:10;;;;;;;15.48;6.50;;;;;;;17.74;94.14;100497.56;4859656;29;20068;-73
2023/10/12 13:29:14;;;;;;;9.95;4.65;;;;;;;17.47;95.40;100504.19;4858971;29;20064;-73
2023/10/12 13:32:19;;;;;;;11.80;4.45;;;;;;;17.44;94.06;100497.34;4859187;29;20104;-75
2023/10/12 13:35:44;;;;;;;14.88;5.18;;;;;;;17.22;94.03;100522.97;4859613;29;20160;-73
2023/10/12 13:38:47;;;;;;;;;;;;;;;17.03;94.97;100513.88;4859538;29;20063;-72
2023/10/12 13:41:51;;;;;;;12.48;4.45;;;;;;;16.98;95.90;100509.94;4859153;29;19931;-74
2023/10/12 13:44:54;;;;;;;12.48;5.20;;;;;;;17.09;97.07;100520.47;4859547;29;20056;-73
2023/10/12 13:47:58;;;;;;;9.68;4.68;;;;;;;17.12;97.54;100530.81;4859004;29;20129;-73
2023/10/12 13:55:11;;;;;;;11.15;5.32;;;;;;;16.99;100.00;100530.94;4858798;29;20061;-72
2023/10/12 13:58:15;;;;;;;11.32;3.75;;;;;;;16.89;100.00;100532.63;4859569;29;20407;-72
2023/10/12 14:01:21;;;;;;;11.25;5.57;;;;;;;16.80;100.00;100515.69;4858594;29;20570;-71
2023/10/12 14:04:33;;;;;;;9.93;4.93;;;;;;;16.91;100.00;100525.41;4859157;29;20114;-73
2023/10/12 14:07:37;;;;;;;12.73;4.78;;;;;;;16.83;100.00;100522.53;4858342;29;20060;-74
2023/10/12 14:10:44;;;;;;;13.65;5.07;;;;;;;16.99;100.00;100522.19;4858748;29;20040;-71
2023/10/12 14:13:50;;;;;;;11.73;5.30;;;;;;;16.97;100.00;100514.34;4858724;29;20060;-73
2023/10/12 14:16:53;;;;;;;11.13;5.43;;;;;;;17.06;100.00;100513.63;4858260;29;20056;-73
2023/10/12 14:19:58;;;;;;;16.60;5.60;;;;;;;17.01;100.00;100520.25;4858916;29;20049;-73
2023/10/12 14:23:07;;;;;;;10.15;4.78;;;;;;;16.83;100.00;100533.94;4858915;29;20102;-72
2023/10/12 14:26:22;;;;;;;20.67;12.63;;;;;;;16.60;100.00;100542.78;4859039;29;20067;-72
2023/10/12 14:29:25;;;;;;;13.07;8.95;;;;;;;16.68;100.00;100564.13;4847736;29;20360;-74
2023/10/12 14:32:30;;;;;;;15.60;6.50;;;;;;;16.60;100.00;100548.06;4858884;29;20087;-73
2023/10/12 14:35:40;;;;;;;12.60;5.20;;;;;;;16.75;100.00;100552.16;4858945;29;20411;-74
2023/10/12 14:38:45;;;;;;;15.88;5.30;;;;;;;16.79;100.00;100542.25;4857558;29;20105;-74
2023/10/12 14:41:49;;;;;;;13.77;5.97;;;;;;;16.83;100.00;100533.94;4858202;29;20471;-74
2023/10/12 14:44:54;;;;;;;9.50;5.03;;;;;;;16.81;100.00;100535.00;4858751;29;20052;-73
2023/10/12 14:47:59;;;;;;;12.95;5.55;;;;;;;16.88;100.00;100526.50;4858992;29;20083;-73
2023/10/12 14:51:13;;;;;;;12.02;5.10;;;;;;;16.87;100.00;100524.81;4859066;29;20222;-73
2023/10/12 14:54:19;;;;;;;12.88;5.22;;;;;;;16.83;100.00;100518.09;4860853;29;20133;-73
2023/10/12 14:57:24;;;;;;;14.25;4.70;;;;;;;16.75;100.00;100525.75;4860735;29;20059;-74
2023/10/12 15:00:29;;;;;;;9.77;4.82;;;;;;;16.78;100.00;100522.88;4868956;29;20048;-73
2023/10/12 15:03:34;;;;;;;11.93;5.30;;;;;;;16.60;100.00;100532.22;4870888;29;20072;-73
2023/10/12 15:06:38;;;;;;;15.52;5.07;;;;;;;16.62;100.00;100525.84;4869654;29;20406;-73
2023/10/12 15:09:48;;;;;;;15.35;5.85;;;;;;;16.67;100.00;100523.69;4869039;29;20563;-73
2023/10/12 15:12:56;;;;;;;13.95;4.93;;;;;;;16.76;100.00;100514.25;4868883;29;20039;-74
2023/10/12 15:15:59;;;;;;;9.95;5.15;;;;;;;16.54;100.00;100506.31;4853742;29;20112;-73
2023/10/12 15:19:08;;;;;;;11.18;5.47;;;;;;;16.31;100.00;100505.44;4848447;29;20053;-74
2023/10/12 15:22:12;;;;;;;17.85;6.95;;;;;;;16.52;100.00;100503.78;4851610;29;20518;-73
2023/10/12 15:25:19;;;;;;;13.45;5.78;;;;;;;16.57;100.00;100500.78;4852475;29;20060;-73
2023/10/12 15:28:22;;;;;;;14.40;6.50;;;;;;;16.35;100.00;100507.72;4850439;29;20101;-73
2023/10/12 15:31:26;;;;;;;12.77;5.50;;;;;;;16.30;100.00;100498.47;4852010;29;20041;-73
2023/10/12 15:34:35;;;;;;;13.18;5.00;;;;;;;16.33;100.00;100509.63;4851521;29;20444;-73
2023/10/12 15:37:46;;;;;;;14.70;4.97;;;;;;;16.46;100.00;100505.09;4850746;29;20109;-74
2023/10/12 15:40:49;;;;;;;10.52;5.47;;;;;;;16.48;100.00;100510.25;4851871;29;20110;-73
2023/10/12 15:43:53;;;;;;;17.33;5.45;;;;;;;16.63;100.00;100505.59;4851858;29;20048;-74
2023/10/12 15:46:56;;;;;;;15.70;4.82;;;;;;;16.60;100.00;100501.38;4852786;29;20133;-74